createdAt,value
2018-01-04T00:00:18.353Z,990.79
2018-01-04T00:01:16.227Z,990.73
2018-01-04T00:02:16.454Z,990.76
2018-01-04T00:03:16.225Z,990.65
2018-01-04T00:04:16.333Z,990.82
2018-01-04T00:05:16.237Z,990.83
2018-01-04T00:06:17.279Z,990.81
2018-01-04T00:07:16.231Z,990.75
2018-01-04T00:08:21.175Z,990.79
2018-01-04T00:09:16.240Z,990.81
2018-01-04T00:10:16.371Z,990.69
2018-01-04T00:11:16.240Z,990.71
2018-01-04T00:12:17.426Z,990.79
2018-01-04T00:13:16.245Z,990.75
2018-01-04T00:14:16.399Z,990.74
2018-01-04T00:15:16.258Z,990.69
2018-01-04T00:16:16.423Z,990.61
2018-01-04T00:17:16.250Z,990.69
2018-01-04T00:18:17.452Z,990.67
2018-01-04T00:19:16.257Z,990.65
2018-01-04T00:20:16.441Z,990.66
2018-01-04T00:21:16.269Z,990.66
2018-01-04T00:22:22.194Z,990.66
2018-01-04T00:23:16.263Z,990.62
2018-01-04T00:24:28.251Z,990.52
2018-01-04T00:25:16.264Z,990.64
2018-01-04T00:26:16.383Z,990.64
2018-01-04T00:27:16.273Z,990.70
2018-01-04T00:28:18.443Z,990.65
2018-01-04T00:29:16.270Z,990.56
2018-01-04T00:30:17.435Z,990.68
2018-01-04T00:31:16.276Z,990.68
2018-01-04T00:32:16.424Z,990.74
2018-01-04T00:33:16.288Z,990.68
2018-01-04T00:34:17.461Z,990.75
2018-01-04T00:35:16.285Z,990.68
2018-01-04T00:36:16.442Z,990.76
2018-01-04T00:37:16.286Z,990.74
2018-01-04T00:38:16.462Z,990.71
2018-01-04T00:39:16.290Z,990.90
2018-01-04T00:40:17.503Z,990.67
2018-01-04T00:41:16.296Z,990.69
2018-01-04T00:42:16.488Z,990.70
2018-01-04T00:43:16.295Z,990.71
2018-01-04T00:44:16.504Z,990.72
2018-01-04T00:45:16.304Z,990.71
2018-01-04T00:46:29.213Z,990.66
2018-01-04T00:47:16.303Z,990.65
2018-01-04T00:48:16.427Z,990.63
2018-01-04T00:49:16.307Z,990.62
2018-01-04T00:50:32.210Z,990.62
2018-01-04T00:51:16.311Z,990.61
2018-01-04T00:52:17.478Z,990.62
2018-01-04T00:53:16.316Z,990.68
2018-01-04T00:54:21.282Z,990.65
2018-01-04T00:55:16.315Z,990.61
2018-01-04T00:56:18.631Z,990.70
2018-01-04T00:57:16.321Z,990.65
2018-01-04T00:58:17.518Z,990.65
2018-01-04T00:59:16.333Z,990.65
2018-01-04T01:00:23.266Z,990.65
2018-01-04T01:01:16.331Z,990.68
2018-01-04T01:02:21.130Z,990.76
2018-01-04T01:03:16.334Z,990.75
2018-01-04T01:04:16.433Z,990.80
2018-01-04T01:05:16.337Z,990.84
2018-01-04T01:06:16.449Z,990.82
2018-01-04T01:07:16.337Z,990.83
2018-01-04T01:08:16.469Z,990.83
2018-01-04T01:09:16.342Z,990.81
2018-01-04T01:10:16.371Z,990.93
2018-01-04T01:11:16.341Z,990.90
2018-01-04T01:12:27.138Z,990.94
2018-01-04T01:13:16.346Z,990.88
2018-01-04T01:14:50.106Z,990.90
2018-01-04T01:15:16.357Z,991.05
2018-01-04T01:16:16.355Z,990.88
2018-01-04T01:17:17.448Z,990.91
2018-01-04T01:18:16.358Z,990.96
2018-01-04T01:19:18.487Z,990.92
2018-01-04T01:20:16.365Z,990.97
2018-01-04T01:21:37.440Z,990.89
2018-01-04T01:22:16.364Z,990.87
2018-01-04T01:23:29.155Z,990.87
2018-01-04T01:24:16.368Z,990.85
2018-01-04T01:25:31.118Z,990.92
2018-01-04T01:26:16.369Z,990.84
2018-01-04T01:27:17.410Z,990.83
2018-01-04T01:28:16.366Z,990.83
2018-01-04T01:29:28.177Z,990.79
2018-01-04T01:30:16.366Z,990.86
2018-01-04T01:31:38.437Z,990.81
2018-01-04T01:32:16.381Z,990.80
2018-01-04T01:33:18.475Z,990.83
2018-01-04T01:34:16.387Z,990.78
2018-01-04T01:35:16.439Z,990.86
2018-01-04T01:36:16.388Z,990.85
2018-01-04T01:37:40.113Z,990.81
2018-01-04T01:38:16.390Z,990.79
2018-01-04T01:39:16.394Z,990.78
2018-01-04T01:40:18.525Z,990.82
2018-01-04T01:41:16.406Z,990.85
2018-01-04T01:42:16.489Z,990.89
2018-01-04T01:43:16.399Z,990.98
2018-01-04T01:44:17.526Z,990.90
2018-01-04T01:45:16.404Z,991.00
2018-01-04T01:46:16.515Z,990.88
2018-01-04T01:47:16.411Z,990.93
2018-01-04T01:48:21.138Z,990.88
2018-01-04T01:49:16.410Z,990.94
2018-01-04T01:50:44.195Z,990.90
2018-01-04T01:51:16.411Z,990.88
2018-01-04T01:52:21.168Z,990.91
2018-01-04T01:53:16.413Z,990.74
2018-01-04T01:54:23.126Z,990.82
2018-01-04T01:55:16.424Z,990.89
2018-01-04T01:56:21.198Z,990.92
2018-01-04T01:57:16.424Z,990.90
2018-01-04T02:05:39.136Z,991.29
2018-01-04T02:06:37.136Z,991.12
2018-01-04T02:07:38.276Z,991.24
2018-01-04T02:08:37.142Z,991.17
2018-01-04T02:09:43.194Z,991.12
2018-01-04T02:10:37.144Z,991.04
2018-01-04T02:11:38.297Z,991.18
2018-01-04T02:12:37.160Z,991.10
2018-01-04T02:13:44.244Z,991.12
2018-01-04T02:14:37.150Z,991.13
2018-01-04T02:15:39.240Z,991.20
2018-01-04T02:16:37.156Z,991.18
2018-01-04T02:18:09.259Z,991.21
2018-01-04T02:18:37.146Z,991.14
2018-01-04T02:19:37.164Z,991.24
2018-01-04T02:20:37.228Z,991.23
2018-01-04T02:21:37.160Z,991.21
2018-01-04T02:22:58.174Z,991.17
2018-01-04T02:23:37.164Z,991.17
2018-01-04T02:24:37.176Z,991.21
2018-01-04T02:26:09.218Z,991.19
2018-01-04T02:26:37.180Z,991.22
2018-01-04T02:27:37.173Z,991.25
2018-01-04T02:28:38.305Z,991.24
2018-01-04T02:29:37.181Z,991.11
2018-01-04T02:30:39.246Z,991.28
2018-01-04T02:31:37.183Z,991.16
2018-01-04T02:32:37.181Z,991.26
2018-01-04T02:33:37.318Z,991.33
2018-01-04T02:34:37.182Z,991.24
2018-01-04T02:35:44.294Z,991.25
2018-01-04T02:36:37.190Z,991.20
2018-01-04T02:37:44.201Z,991.23
2018-01-04T02:38:37.196Z,991.13
2018-01-04T02:39:42.270Z,991.20
2018-01-04T02:40:37.200Z,991.16
2018-01-04T02:41:38.290Z,991.17
2018-01-04T02:42:37.196Z,991.13
2018-01-04T02:43:48.236Z,991.22
2018-01-04T02:44:37.204Z,991.22
2018-01-04T02:45:37.295Z,991.23
2018-01-04T02:46:37.210Z,991.18
2018-01-04T02:47:44.274Z,991.18
2018-01-04T02:48:37.202Z,991.18
2018-01-04T02:49:58.317Z,991.16
2018-01-04T02:50:37.215Z,991.12
2018-01-04T02:51:42.245Z,991.10
2018-01-04T02:52:37.216Z,991.08
2018-01-04T02:54:01.210Z,991.15
2018-01-04T02:54:37.221Z,991.13
2018-01-04T02:55:37.221Z,991.08
2018-01-04T02:56:52.216Z,991.21
2018-01-04T02:57:37.223Z,991.11
2018-01-04T02:58:48.233Z,991.08
2018-01-04T02:59:37.229Z,991.17
2018-01-04T03:00:43.242Z,991.20
2018-01-04T03:01:37.229Z,991.18
2018-01-04T03:02:37.238Z,991.23
2018-01-04T03:03:37.233Z,991.17
2018-01-04T03:04:37.233Z,991.21
2018-01-04T03:05:42.241Z,991.20
2018-01-04T03:06:37.243Z,991.31
2018-01-04T03:07:43.282Z,991.23
2018-01-04T03:08:37.243Z,991.21
2018-01-04T03:09:37.243Z,991.26
2018-01-04T03:10:37.248Z,991.17
2018-01-04T03:11:44.228Z,991.11
2018-01-04T03:12:37.260Z,991.21
2018-01-04T03:13:37.268Z,991.20
2018-01-04T03:14:37.254Z,991.15
2018-01-04T03:15:37.251Z,991.10
2018-01-04T03:16:37.265Z,991.11
2018-01-04T03:17:39.354Z,991.22
2018-01-04T03:18:37.260Z,991.04
2018-01-04T03:19:37.263Z,991.09
2018-01-04T03:20:38.352Z,991.19
2018-01-04T03:21:37.266Z,991.08
2018-01-04T03:22:48.296Z,991.11
2018-01-04T03:23:37.282Z,991.09
2018-01-04T03:24:58.445Z,991.11
2018-01-04T03:25:37.274Z,991.05
2018-01-04T03:26:44.224Z,991.05
2018-01-04T03:27:37.276Z,991.15
2018-01-04T03:28:37.383Z,991.10
2018-01-04T03:29:37.277Z,991.09
2018-01-04T03:31:02.280Z,991.04
2018-01-04T03:31:37.286Z,991.05
2018-01-04T03:32:48.263Z,991.16
2018-01-04T03:33:37.285Z,991.16
2018-01-04T03:34:48.277Z,991.11
2018-01-04T03:35:37.290Z,991.21
2018-01-04T03:36:58.427Z,991.16
2018-01-04T03:37:37.288Z,991.08
2018-01-04T03:38:49.223Z,991.12
2018-01-04T03:39:37.295Z,991.13
2018-01-04T03:40:37.462Z,991.17
2018-01-04T03:41:37.300Z,991.19
2018-01-04T05:12:34.402Z,991.40
2018-01-04T05:13:39.426Z,991.41
2018-01-04T06:09:36.937Z,991.41
2018-01-04T06:10:36.920Z,991.38
2018-01-04T06:11:39.000Z,991.33
2018-01-04T06:12:36.921Z,991.38
2018-01-04T06:13:36.965Z,991.36
2018-01-04T06:14:36.927Z,991.33
2018-01-04T06:15:57.976Z,991.37
2018-01-04T06:16:36.929Z,991.46
2018-01-04T06:17:36.932Z,991.41
2018-01-04T06:19:06.699Z,991.36
2018-01-04T06:19:36.931Z,991.33
2018-01-04T06:20:36.932Z,991.36
2018-01-04T06:22:01.698Z,991.34
2018-01-04T06:22:36.945Z,991.32
2018-01-04T06:24:08.678Z,991.38
2018-01-04T06:24:36.949Z,991.37
2018-01-04T06:25:36.942Z,991.35
2018-01-04T06:26:41.663Z,991.34
2018-01-04T06:27:36.948Z,991.24
2018-01-04T06:28:53.759Z,991.30
2018-01-04T06:29:36.952Z,991.30
2018-01-04T06:30:38.005Z,991.29
2018-01-04T06:31:36.956Z,991.24
2018-01-04T06:33:01.671Z,991.35
2018-01-04T06:33:36.958Z,991.28
2018-01-04T07:13:44.303Z,991.20
2018-01-04T07:14:38.268Z,991.21
2018-01-04T07:15:38.270Z,991.13
2018-01-04T07:45:14.544Z,991.34
2018-01-04T07:46:14.774Z,991.35
2018-01-04T07:47:12.734Z,991.37
2018-01-04T07:51:51.546Z,991.41
2018-01-04T07:52:43.267Z,991.38
2018-01-04T07:53:43.245Z,991.39
2018-01-04T07:55:08.059Z,991.40
2018-01-04T07:55:43.250Z,991.42
2018-01-04T07:56:59.062Z,991.46
2018-01-04T07:57:43.256Z,991.49
2018-01-04T08:28:02.251Z,991.23
2018-01-04T08:29:04.297Z,991.24
2018-01-04T08:30:02.224Z,991.18
2018-01-04T08:31:02.260Z,991.23
2018-01-04T08:32:02.228Z,991.20
2018-01-04T08:33:35.248Z,991.24
2018-01-04T08:34:02.236Z,991.22
2018-01-04T08:35:02.287Z,991.21
2018-01-04T08:36:02.240Z,991.17
2018-01-04T08:37:31.179Z,991.09
2018-01-04T08:38:02.240Z,991.04
2018-01-04T08:39:14.201Z,991.15
2018-01-04T08:40:02.243Z,991.03
2018-01-04T08:41:39.194Z,991.09
2018-01-04T08:42:02.247Z,991.08
2018-01-04T08:43:02.243Z,991.07
2018-01-04T08:44:07.165Z,991.04
2018-01-04T08:45:02.253Z,991.03
2018-01-04T08:46:07.176Z,991.02
2018-01-04T08:47:02.251Z,991.00
2018-01-04T08:48:03.313Z,991.00
2018-01-04T08:49:02.255Z,990.97
2018-01-04T08:50:26.251Z,990.96
2018-01-04T08:51:02.260Z,990.94
2018-01-04T08:52:07.219Z,991.00
2018-01-04T08:53:02.262Z,991.02
2018-01-04T08:54:03.341Z,991.05
2018-01-04T08:55:02.269Z,991.02
2018-01-04T08:56:15.234Z,991.05
2018-01-04T08:57:02.272Z,991.01
2018-01-04T08:58:13.217Z,991.08
2018-01-04T08:59:02.288Z,990.98
2018-01-04T09:00:02.359Z,991.02
2018-01-04T09:01:02.283Z,991.03
2018-01-04T09:02:17.222Z,991.09
2018-01-04T09:03:02.289Z,991.01
2018-01-04T09:04:34.235Z,991.02
2018-01-04T09:05:02.284Z,991.05
2018-01-04T09:06:02.290Z,991.05
2018-01-04T09:07:07.223Z,991.02
2018-01-04T09:08:02.295Z,991.04
2018-01-04T10:18:30.308Z,990.34
2018-01-04T10:19:21.641Z,990.35
2018-01-04T10:20:21.572Z,990.36
2018-01-04T10:21:21.649Z,990.28
2018-01-04T10:22:21.583Z,990.27
2018-01-04T10:23:21.671Z,990.25
2018-01-04T10:24:21.576Z,990.26
2018-01-04T10:25:21.679Z,990.26
2018-01-04T10:26:21.582Z,990.24
2018-01-04T10:27:26.400Z,990.26
2018-01-04T10:28:21.582Z,990.27
2018-01-04T10:29:21.604Z,990.24
2018-01-04T10:30:21.580Z,990.18
2018-01-04T10:31:27.364Z,990.17
2018-01-04T10:32:21.586Z,990.09
2018-01-04T10:33:21.631Z,990.03
2018-01-04T10:34:21.592Z,990.06
2018-01-04T10:35:23.690Z,990.07
2018-01-04T10:36:21.599Z,990.12
2018-01-04T10:37:21.657Z,990.21
2018-01-04T10:38:21.598Z,990.13
2018-01-04T10:39:22.706Z,990.12
2018-01-04T10:40:21.613Z,990.12
2018-01-04T10:41:23.630Z,990.08
2018-01-04T10:42:21.612Z,990.07
2018-01-04T10:43:22.723Z,990.13
2018-01-04T10:44:21.612Z,990.02
2018-01-04T10:45:21.712Z,990.04
2018-01-04T10:46:21.612Z,989.93
2018-01-04T10:47:42.718Z,989.93
2018-01-04T10:48:21.620Z,989.90
2018-01-04T10:49:32.391Z,989.78
2018-01-04T10:50:21.626Z,989.83
2018-01-04T11:05:30.634Z,989.47
2018-01-04T11:06:12.703Z,989.36
2018-01-04T11:22:54.610Z,989.23
2018-01-04T11:23:52.887Z,989.18
2018-01-04T11:24:52.815Z,989.19
2018-01-04T11:25:53.930Z,989.17
2018-01-04T11:26:52.834Z,989.18
2018-01-04T11:27:52.920Z,989.23
2018-01-04T11:28:52.823Z,989.22
2018-01-04T11:29:52.933Z,989.19
2018-01-04T11:30:52.830Z,989.22
2018-01-04T11:31:52.947Z,989.27
2018-01-04T11:32:52.874Z,989.26
2018-01-04T11:33:52.859Z,989.14
2018-01-04T11:34:52.842Z,989.09
2018-01-04T11:35:52.869Z,989.10
2018-01-04T11:36:52.839Z,989.01
2018-01-04T11:37:52.884Z,989.02
2018-01-04T11:38:52.844Z,988.99
2018-01-04T11:39:52.895Z,989.01
2018-01-04T11:40:52.843Z,988.97
2018-01-04T11:41:57.618Z,989.00
2018-01-04T11:42:52.851Z,988.91
2018-01-04T11:43:52.927Z,988.91
2018-01-04T11:44:52.861Z,988.91
2018-01-04T11:45:52.857Z,988.87
2018-01-04T11:46:52.955Z,988.83
2018-01-04T11:47:52.860Z,988.87
2018-01-04T11:48:52.959Z,988.89
2018-01-04T11:49:52.864Z,988.92
2018-01-04T11:50:52.982Z,988.91
2018-01-04T11:51:52.869Z,988.82
2018-01-04T11:52:57.693Z,988.82
2018-01-04T11:53:52.873Z,988.75
2018-01-04T11:54:53.917Z,988.66
2018-01-04T11:55:52.876Z,988.67
2018-01-04T11:56:52.906Z,988.68
2018-01-04T11:57:52.882Z,988.71
2018-01-04T11:58:52.881Z,988.67
2018-01-04T11:59:53.949Z,988.69
2018-01-04T12:00:52.891Z,988.66
2018-01-04T12:01:53.974Z,988.58
2018-01-04T12:02:52.898Z,988.55
2018-01-04T12:03:53.979Z,988.52
2018-01-04T12:04:52.892Z,988.47
2018-01-04T12:05:54.924Z,988.43
2018-01-04T12:06:52.896Z,988.39
2018-01-04T12:07:52.992Z,988.38
2018-01-04T12:08:52.933Z,988.38
2018-01-04T12:09:53.004Z,988.42
2018-01-04T12:10:52.908Z,988.42
2018-01-04T12:11:53.020Z,988.29
2018-01-04T12:12:52.904Z,988.27
2018-01-04T12:13:53.019Z,988.19
2018-01-04T12:14:52.912Z,988.15
2018-01-04T12:15:52.943Z,988.15
2018-01-04T12:16:52.920Z,988.07
2018-01-04T12:17:57.689Z,988.02
2018-01-04T12:18:52.919Z,988.01
2018-01-04T12:19:52.970Z,988.00
2018-01-04T12:20:52.933Z,987.92
2018-01-04T12:21:52.980Z,987.95
2018-01-04T12:22:52.931Z,987.86
2018-01-04T12:23:55.039Z,987.80
2018-01-04T12:24:52.930Z,987.82
2018-01-04T12:25:53.005Z,987.76
2018-01-04T12:26:52.932Z,987.76
2018-01-04T12:27:53.018Z,987.79
2018-01-04T12:28:52.938Z,987.75
2018-01-04T12:29:53.030Z,987.78
2018-01-04T12:30:52.947Z,987.76
2018-01-04T12:32:05.637Z,987.75
2018-01-04T12:32:52.947Z,987.72
2018-01-04T12:33:53.056Z,987.63
2018-01-04T12:34:52.950Z,987.68
2018-01-04T12:35:52.968Z,987.69
2018-01-04T12:36:52.957Z,987.65
2018-01-04T12:37:53.030Z,987.69
2018-01-04T12:38:52.958Z,987.64
2018-01-04T12:39:52.992Z,987.59
2018-01-04T12:40:52.959Z,987.58
2018-01-04T12:41:53.007Z,987.57
2018-01-04T12:42:52.981Z,987.52
2018-01-04T12:43:53.021Z,987.53
2018-01-04T12:44:52.971Z,987.52
2018-01-04T12:45:54.057Z,987.45
2018-01-04T12:46:52.971Z,987.41
2018-01-04T12:47:53.045Z,987.39
2018-01-04T12:48:52.977Z,987.37
2018-01-04T12:49:54.120Z,987.33
2018-01-04T12:50:52.977Z,987.30
2018-01-04T12:51:54.002Z,987.34
2018-01-04T12:52:52.988Z,987.39
2018-01-04T12:53:55.034Z,987.34
2018-01-04T12:54:52.988Z,987.34
2018-01-04T12:55:53.106Z,987.33
2018-01-04T12:56:52.990Z,987.35
2018-01-04T12:57:53.011Z,987.32
2018-01-04T12:58:52.993Z,987.28
2018-01-04T12:59:54.046Z,987.27
2018-01-04T13:00:53.008Z,987.20
2018-01-04T13:01:54.071Z,987.24
2018-01-04T13:02:53.010Z,987.19
2018-01-04T13:03:54.079Z,987.14
2018-01-04T13:04:53.010Z,987.14
2018-01-04T13:05:58.702Z,987.15
2018-01-04T13:06:53.014Z,987.13
2018-01-04T13:07:57.690Z,987.10
2018-01-04T13:08:53.018Z,987.02
2018-01-04T13:09:54.118Z,987.02
2018-01-04T13:10:53.018Z,986.94
2018-01-04T13:11:53.109Z,986.98
2018-01-04T13:12:53.024Z,986.93
2018-01-04T13:13:54.045Z,986.94
2018-01-04T13:14:53.028Z,986.89
2018-01-04T13:15:54.085Z,986.93
2018-01-04T13:16:53.037Z,986.87
2018-01-04T13:17:53.055Z,986.87
2018-01-04T13:18:53.037Z,986.92
2018-01-04T13:19:53.073Z,986.76
2018-01-04T13:20:53.040Z,986.82
2018-01-04T13:21:57.684Z,986.76
2018-01-04T13:22:53.055Z,986.75
2018-01-04T13:23:54.109Z,986.75
2018-01-04T13:24:53.045Z,986.73
2018-01-04T13:25:53.103Z,986.65
2018-01-04T13:26:53.060Z,986.61
2018-01-04T13:27:54.135Z,986.59
2018-01-04T13:28:53.065Z,986.58
2018-01-04T13:29:55.072Z,986.51
2018-01-04T13:30:53.064Z,986.48
2018-01-04T13:31:53.150Z,986.46
2018-01-04T13:32:53.060Z,986.46
2018-01-04T13:33:54.178Z,986.47
2018-01-04T13:34:53.066Z,986.48
2018-01-04T13:35:54.092Z,986.44
2018-01-04T13:36:53.071Z,986.40
2018-01-04T13:37:54.107Z,986.40
2018-01-04T13:38:53.074Z,986.34
2018-01-04T13:39:58.726Z,986.33
2018-01-04T13:40:53.096Z,986.25
2018-01-04T13:41:54.133Z,986.24
2018-01-04T13:42:53.094Z,986.16
2018-01-04T13:43:55.172Z,986.23
2018-01-04T13:44:53.088Z,986.21
2018-01-04T13:45:54.164Z,986.16
2018-01-04T13:46:53.101Z,986.20
2018-01-04T13:47:53.150Z,986.16
2018-01-04T13:48:53.096Z,986.12
2018-01-04T13:49:53.171Z,986.14
2018-01-04T13:50:53.101Z,986.12
2018-01-04T13:51:53.181Z,986.12
2018-01-04T13:52:53.106Z,986.06
2018-01-04T13:53:59.642Z,986.00
2018-01-04T13:54:53.108Z,986.00
2018-01-04T13:55:53.206Z,985.94
2018-01-04T13:56:53.109Z,985.91
2018-01-04T13:57:53.219Z,985.90
2018-01-04T13:58:53.114Z,985.83
2018-01-04T13:59:54.162Z,985.83
2018-01-04T14:00:53.117Z,985.83
2018-01-04T14:01:54.170Z,985.84
2018-01-04T14:02:53.127Z,985.83
2018-01-04T14:03:55.202Z,985.89
2018-01-04T14:04:53.129Z,985.86
2018-01-04T14:05:53.165Z,985.83
2018-01-04T14:06:53.130Z,985.82
2018-01-04T14:07:54.217Z,985.84
2018-01-04T14:08:53.146Z,985.77
2018-01-04T14:09:53.203Z,985.80
2018-01-04T14:10:53.162Z,985.77
2018-01-04T14:11:53.212Z,985.72
2018-01-04T14:12:53.151Z,985.73
2018-01-04T14:13:54.249Z,985.71
2018-01-04T14:14:53.148Z,985.62
2018-01-04T14:15:53.240Z,985.58
2018-01-04T14:16:53.153Z,985.62
2018-01-04T14:17:53.269Z,985.55
2018-01-04T14:18:53.154Z,985.54
2018-01-04T14:19:53.268Z,985.52
2018-01-04T14:20:53.158Z,985.48
2018-01-04T14:21:53.177Z,985.50
2018-01-04T14:22:53.163Z,985.54
2018-01-04T14:23:53.190Z,985.49
2018-01-04T14:24:53.984Z,985.43
2018-01-04T14:25:53.201Z,985.44
2018-01-04T14:26:53.176Z,985.39
2018-01-04T14:27:53.220Z,985.37
2018-01-04T14:28:53.193Z,985.30
2018-01-04T14:29:53.229Z,985.22
2018-01-04T14:30:53.178Z,985.26
2018-01-04T14:31:53.245Z,985.21
2018-01-04T14:32:53.182Z,985.24
2018-01-04T14:33:53.261Z,985.27
2018-01-04T14:34:53.188Z,985.20
2018-01-04T14:35:54.296Z,985.22
2018-01-04T14:36:53.195Z,985.17
2018-01-04T14:37:54.314Z,985.14
2018-01-04T14:38:53.246Z,985.13
2018-01-04T14:39:53.302Z,985.10
2018-01-04T14:40:53.201Z,985.14
2018-01-04T14:41:55.263Z,985.10
2018-01-04T14:42:53.212Z,985.11
2018-01-04T14:43:53.227Z,985.17
2018-01-04T14:44:53.205Z,985.13
2018-01-04T14:45:54.268Z,985.19
2018-01-04T14:46:53.217Z,985.12
2018-01-04T14:47:53.255Z,985.03
2018-01-04T14:48:53.224Z,985.05
2018-01-04T14:49:53.225Z,984.99
2018-01-04T14:50:53.224Z,984.95
2018-01-04T14:51:53.280Z,985.04
2018-01-04T14:52:53.254Z,984.97
2018-01-04T14:53:53.231Z,985.04
2018-01-04T14:54:53.230Z,984.98
2018-01-04T14:55:53.231Z,984.87
2018-01-04T14:56:53.233Z,984.94
2018-01-04T14:57:53.243Z,984.98
2018-01-04T14:58:53.238Z,984.93
2018-01-04T14:59:55.290Z,984.98
2018-01-04T15:00:53.242Z,984.91
2018-01-04T15:01:53.351Z,984.89
2018-01-04T15:02:53.254Z,984.85
2018-01-04T15:03:53.366Z,984.88
2018-01-04T15:04:53.248Z,984.80
2018-01-04T15:05:53.272Z,984.79
2018-01-04T15:06:53.254Z,984.77
2018-01-04T15:07:53.257Z,984.76
2018-01-04T15:08:54.320Z,984.84
2018-01-04T15:09:53.261Z,984.79
2018-01-04T15:10:53.311Z,984.81
2018-01-04T15:11:53.274Z,984.80
2018-01-04T15:12:53.321Z,984.82
2018-01-04T15:13:53.298Z,984.82
2018-01-04T15:14:53.338Z,984.78
2018-01-04T15:15:53.269Z,984.78
2018-01-04T15:16:53.345Z,984.73
2018-01-04T15:17:53.295Z,984.70
2018-01-04T15:18:53.284Z,984.67
2018-01-04T15:19:54.393Z,984.65
2018-01-04T15:20:53.294Z,984.66
2018-01-04T15:21:53.384Z,984.63
2018-01-04T15:22:53.294Z,984.64
2018-01-04T15:23:58.215Z,984.63
2018-01-04T15:24:53.317Z,984.71
2018-01-04T15:25:54.335Z,984.66
2018-01-04T15:26:53.313Z,984.61
2018-01-04T15:27:54.343Z,984.63
2018-01-04T15:28:53.296Z,984.59
2018-01-04T15:29:54.361Z,984.50
2018-01-04T15:30:53.330Z,984.58
2018-01-04T15:31:53.302Z,984.60
2018-01-04T15:32:53.302Z,984.57
2018-01-04T15:33:53.360Z,984.61
2018-01-04T15:34:53.315Z,984.58
2018-01-04T15:35:53.377Z,984.55
2018-01-04T15:36:53.321Z,984.60
2018-01-04T15:37:53.388Z,984.69
2018-01-04T15:38:53.318Z,984.59
2018-01-04T15:39:53.399Z,984.51
2018-01-04T15:40:53.330Z,984.51
2018-01-04T15:41:53.413Z,984.57
2018-01-04T15:42:53.328Z,984.46
2018-01-04T15:43:53.429Z,984.42
2018-01-04T15:44:53.330Z,984.41
2018-01-04T15:45:53.440Z,984.40
2018-01-04T15:46:53.344Z,984.42
2018-01-04T15:47:54.380Z,984.45
2018-01-04T15:48:53.339Z,984.39
2018-01-04T15:49:53.367Z,984.39
2018-01-04T15:50:53.337Z,984.42
2018-01-04T15:51:58.190Z,984.36
2018-01-04T15:52:53.341Z,984.33
2018-01-04T15:53:53.344Z,984.33
2018-01-04T15:54:53.398Z,984.24
2018-01-04T15:55:53.349Z,984.20
2018-01-04T15:56:53.414Z,984.19
2018-01-04T15:57:53.358Z,984.18
2018-01-04T15:58:53.424Z,984.18
2018-01-04T15:59:53.358Z,984.15
2018-01-04T16:00:53.444Z,984.17
2018-01-04T16:01:53.365Z,984.22
2018-01-04T16:02:53.455Z,984.26
2018-01-04T16:03:53.367Z,984.22
2018-01-04T16:04:54.392Z,984.22
2018-01-04T16:05:53.369Z,984.26
2018-01-04T16:06:53.482Z,984.27
2018-01-04T16:07:53.377Z,984.21
2018-01-04T16:08:53.396Z,984.22
2018-01-04T16:09:53.378Z,984.22
2018-01-04T16:10:53.403Z,984.21
2018-01-04T16:11:53.384Z,984.17
2018-01-04T16:12:55.467Z,984.18
2018-01-04T16:13:53.389Z,984.20
2018-01-04T16:14:54.456Z,984.19
2018-01-04T16:15:53.390Z,984.15
2018-01-04T16:16:53.446Z,984.25
2018-01-04T16:17:53.393Z,984.25
2018-01-04T16:18:53.463Z,984.30
2018-01-04T16:19:53.392Z,984.38
2018-01-04T16:20:54.500Z,984.35
2018-01-04T16:21:53.411Z,984.30
2018-01-04T16:22:54.513Z,984.37
2018-01-04T16:23:53.410Z,984.44
2018-01-04T16:24:53.504Z,984.38
2018-01-04T16:25:53.407Z,984.31
2018-01-04T16:26:53.519Z,984.29
2018-01-04T16:27:53.412Z,984.28
2018-01-04T16:28:53.412Z,984.25
2018-01-04T16:29:55.486Z,984.27
2018-01-04T16:30:53.414Z,984.20
2018-01-04T16:31:54.475Z,984.18
2018-01-04T16:32:53.437Z,984.16
2018-01-04T16:33:54.485Z,984.11
2018-01-04T16:34:53.428Z,984.10
2018-01-04T16:35:54.502Z,984.04
2018-01-04T16:36:53.431Z,984.08
2018-01-04T16:37:53.435Z,984.16
2018-01-04T16:38:53.500Z,984.20
2018-01-04T16:39:53.441Z,984.12
2018-01-04T16:40:53.512Z,984.12
2018-01-04T16:41:53.441Z,984.17
2018-01-04T16:42:53.526Z,984.17
2018-01-04T16:43:53.450Z,984.14
2018-01-04T16:44:53.540Z,984.17
2018-01-04T16:45:53.458Z,984.14
2018-01-04T16:46:53.582Z,984.14
2018-01-04T16:47:53.542Z,984.11
2018-01-04T16:48:53.560Z,984.14
2018-01-04T16:49:53.460Z,984.08
2018-01-04T16:50:53.477Z,984.18
2018-01-04T16:51:53.460Z,984.12
2018-01-04T16:52:53.495Z,984.07
2018-01-04T16:53:53.461Z,984.01
2018-01-04T16:54:58.210Z,984.02
2018-01-04T16:55:53.482Z,984.08
2018-01-04T16:56:58.223Z,984.03
2018-01-04T16:57:53.476Z,984.01
2018-01-04T16:58:59.181Z,984.01
2018-01-04T16:59:53.480Z,983.99
2018-01-04T17:00:53.549Z,983.96
2018-01-04T17:01:53.482Z,983.99
2018-01-04T17:02:55.603Z,983.97
2018-01-04T17:03:53.492Z,983.98
2018-01-04T17:04:55.508Z,983.97
2018-01-04T17:05:53.492Z,983.87
2018-01-04T17:06:54.597Z,983.91
2018-01-04T17:07:53.491Z,983.89
2018-01-04T17:08:54.512Z,983.72
2018-01-04T17:09:53.512Z,983.70
2018-01-04T17:10:53.612Z,983.72
2018-01-04T17:11:53.502Z,983.74
2018-01-04T17:13:04.164Z,983.78
2018-01-04T17:13:53.508Z,983.86
2018-01-04T17:14:55.576Z,983.81
2018-01-04T17:15:53.511Z,983.81
2018-01-04T17:16:53.510Z,983.78
2018-01-04T17:18:00.205Z,983.78
2018-01-04T17:18:53.517Z,983.74
2018-01-04T17:19:59.247Z,983.72
2018-01-04T17:20:53.522Z,983.67
2018-01-04T17:21:53.581Z,983.69
2018-01-04T17:22:53.524Z,983.71
2018-01-04T17:23:54.612Z,983.62
2018-01-04T17:24:53.527Z,983.62
2018-01-04T17:25:54.658Z,983.61
2018-01-04T17:26:53.535Z,983.64
2018-01-04T17:27:55.583Z,983.59
2018-01-04T17:28:53.543Z,983.58
2018-01-04T17:29:55.585Z,983.53
2018-01-04T17:30:53.538Z,983.57
2018-01-04T17:31:53.658Z,983.59
2018-01-04T17:32:53.555Z,983.64
2018-01-04T17:33:54.588Z,983.57
2018-01-04T17:34:53.576Z,983.62
2018-01-04T17:35:54.601Z,983.51
2018-01-04T17:36:53.559Z,983.52
2018-01-04T17:37:53.591Z,983.48
2018-01-04T17:38:53.559Z,983.50
2018-01-04T17:39:53.598Z,983.41
2018-01-04T17:40:53.574Z,983.39
2018-01-04T17:41:54.648Z,983.36
2018-01-04T17:42:53.571Z,983.36
2018-01-04T17:43:53.626Z,983.32
2018-01-04T17:44:53.570Z,983.34
2018-01-04T17:45:53.645Z,983.30
2018-01-04T17:46:53.595Z,983.36
2018-01-04T17:47:53.656Z,983.36
2018-01-04T17:48:53.579Z,983.33
2018-01-04T17:49:53.668Z,983.32
2018-01-04T17:50:53.583Z,983.32
2018-01-04T17:51:53.679Z,983.28
2018-01-04T17:52:53.590Z,983.28
2018-01-04T17:53:53.694Z,983.25
2018-01-04T17:54:53.595Z,983.26
2018-01-04T17:55:53.708Z,983.18
2018-01-04T17:56:53.612Z,983.24
2018-01-04T17:57:55.664Z,983.20
2018-01-04T17:58:53.599Z,983.20
2018-01-04T17:59:54.654Z,983.25
2018-01-04T18:00:53.609Z,983.15
2018-01-04T18:01:53.642Z,983.24
2018-01-04T18:02:53.612Z,983.23
2018-01-04T18:03:53.615Z,983.27
2018-01-04T18:04:53.665Z,983.16
2018-01-04T18:05:53.619Z,983.17
2018-01-04T18:06:54.707Z,983.25
2018-01-04T18:07:53.654Z,983.16
2018-01-04T18:08:54.713Z,983.23
2018-01-04T18:09:53.632Z,983.15
2018-01-04T18:10:53.706Z,983.23
2018-01-04T18:11:53.630Z,983.14
2018-01-04T18:12:53.720Z,983.19
2018-01-04T18:13:53.637Z,983.22
2018-01-04T18:14:54.656Z,983.18
2018-01-04T18:15:53.666Z,983.22
2018-01-04T18:16:53.744Z,983.18
2018-01-04T18:17:53.648Z,983.15
2018-01-04T18:18:54.787Z,983.14
2018-01-04T18:19:53.661Z,983.17